createdAt,value
2019-05-21T00:02:31.670Z,20.27
2019-05-21T00:07:35.687Z,19.42
2019-05-21T00:12:39.864Z,16.60
2019-05-21T00:17:44.084Z,19.98
2019-05-21T00:22:48.310Z,20.17
2019-05-21T00:27:52.361Z,19.65
2019-05-21T00:33:32.506Z,21.27
2019-05-21T00:39:13.032Z,17.65
2019-05-21T00:44:17.091Z,17.90
2019-05-21T00:49:21.372Z,17.67
2019-05-21T00:54:25.592Z,19.12
2019-05-21T00:59:29.532Z,17.70
2019-05-21T01:04:33.543Z,17.85
2019-05-21T01:09:37.557Z,21.05
2019-05-21T01:14:41.494Z,16.67
2019-05-21T01:19:45.444Z,18.02
2019-05-21T01:24:49.410Z,15.20
2019-05-21T01:29:53.366Z,13.75
2019-05-21T01:34:57.290Z,12.78
2019-05-21T01:40:01.245Z,15.80
2019-05-21T01:45:06.659Z,14.40
2019-05-21T01:50:10.804Z,14.28
2019-05-21T01:55:14.824Z,15.35
2019-05-21T02:00:19.042Z,17.82
2019-05-21T02:05:32.521Z,15.88
2019-05-21T02:10:29.056Z,15.25
2019-05-21T02:15:33.089Z,18.50
2019-05-21T02:20:37.321Z,16.02
2019-05-21T02:25:41.879Z,17.10
2019-05-21T02:30:45.857Z,17.57
2019-05-21T02:35:54.305Z,18.30
2019-05-21T02:40:55.611Z,17.70
2019-05-21T02:45:59.799Z,19.87
2019-05-21T02:51:03.825Z,17.37
2019-05-21T02:56:07.806Z,18.00
2019-05-21T03:01:19.041Z,16.02
2019-05-21T03:06:23.083Z,16.80
2019-05-21T03:11:27.020Z,18.82
2019-05-21T03:16:30.968Z,15.68
2019-05-21T03:21:34.905Z,17.10
2019-05-21T03:26:38.849Z,15.95
2019-05-21T03:31:42.787Z,17.55
2019-05-21T03:36:46.747Z,17.23
2019-05-21T03:41:50.792Z,21.07
2019-05-21T03:46:55.442Z,17.82
2019-05-21T03:51:59.923Z,15.83
2019-05-21T03:57:04.100Z,15.88
2019-05-21T04:02:08.167Z,16.07
2019-05-21T04:07:12.200Z,13.18
2019-05-21T04:12:16.172Z,13.48
2019-05-21T04:17:24.771Z,12.78
2019-05-21T04:22:28.740Z,10.30
2019-05-21T04:27:32.709Z,11.12
2019-05-21T04:32:36.709Z,16.20
2019-05-21T04:37:40.810Z,10.80
2019-05-21T04:42:44.749Z,11.43
2019-05-21T04:47:48.686Z,9.68
2019-05-21T04:52:52.644Z,15.80
2019-05-21T04:57:56.590Z,12.75
2019-05-21T05:03:00.552Z,11.60
2019-05-21T05:08:04.572Z,10.85
2019-05-21T05:13:08.729Z,14.33
2019-05-21T05:18:12.689Z,11.93
2019-05-21T05:23:16.655Z,10.68
2019-05-21T05:28:20.580Z,10.30
2019-05-21T05:33:24.552Z,11.33
2019-05-21T05:38:28.508Z,11.90
2019-05-21T05:43:32.449Z,13.08
2019-05-21T05:48:38.017Z,13.38
2019-05-21T05:53:57.648Z,12.47
2019-05-21T05:59:01.627Z,11.78
2019-05-21T06:04:05.562Z,11.45
2019-05-21T06:09:09.503Z,10.35
2019-05-21T06:14:13.446Z,10.60
2019-05-21T06:19:17.464Z,8.83
2019-05-21T06:24:21.409Z,9.85
2019-05-21T06:29:25.361Z,8.08
2019-05-21T06:34:29.294Z,9.08
2019-05-21T06:39:33.247Z,9.25
2019-05-21T06:44:37.179Z,9.63
2019-05-21T06:49:41.103Z,9.58
2019-05-21T06:54:45.066Z,10.82
2019-05-21T06:59:49.013Z,10.28
2019-05-21T07:04:53.011Z,13.20
2019-05-21T07:09:56.942Z,9.38
2019-05-21T07:15:00.990Z,10.78
2019-05-21T07:20:07.372Z,11.28
2019-05-21T07:25:12.336Z,11.68
2019-05-21T07:30:16.884Z,12.50
2019-05-21T07:35:20.874Z,12.63
2019-05-21T07:40:24.835Z,16.17
2019-05-21T07:45:28.908Z,21.97
2019-05-21T07:50:32.872Z,59.60
2019-05-21T07:55:36.833Z,65.37
2019-05-21T08:00:40.833Z,56.92
2019-05-21T08:05:46.484Z,110.32
2019-05-21T08:10:50.504Z,80.65
2019-05-21T08:15:54.671Z,89.72
2019-05-21T08:20:58.732Z,54.80
2019-05-21T08:26:02.744Z,35.40
2019-05-21T08:31:06.723Z,27.02
2019-05-21T08:36:10.853Z,32.93
2019-05-21T08:41:15.150Z,49.95
2019-05-21T08:46:19.122Z,29.12
2019-05-21T08:51:23.099Z,25.80
2019-05-21T08:56:27.129Z,18.70
2019-05-21T09:01:31.174Z,35.52
2019-05-21T09:06:35.117Z,42.70
2019-05-21T09:11:39.093Z,34.78
2019-05-21T09:16:43.094Z,37.63
2019-05-21T09:21:47.060Z,36.65
2019-05-21T09:26:51.021Z,30.70
2019-05-21T09:31:55.022Z,30.35
2019-05-21T09:36:58.961Z,35.10
2019-05-21T09:42:02.895Z,25.32
2019-05-21T09:47:06.842Z,31.48
2019-05-21T09:52:10.903Z,34.83
2019-05-21T09:57:16.521Z,40.73
2019-05-21T10:02:22.279Z,41.02
2019-05-21T10:07:38.889Z,36.73
2019-05-21T10:12:31.827Z,43.63
2019-05-21T10:17:35.775Z,39.75
2019-05-21T10:22:39.727Z,50.12
2019-05-21T10:27:43.661Z,56.90
2019-05-21T10:32:47.609Z,40.30
2019-05-21T10:37:54.945Z,38.28
2019-05-21T10:42:57.266Z,32.40
2019-05-21T10:48:01.216Z,31.10
2019-05-21T10:53:05.234Z,27.37
2019-05-21T10:58:09.220Z,23.40
2019-05-21T11:03:17.597Z,22.60
2019-05-21T11:08:24.118Z,21.30
2019-05-21T11:13:27.567Z,18.30
2019-05-21T11:18:31.657Z,18.25
2019-05-21T11:23:35.628Z,14.28
2019-05-21T11:28:39.664Z,12.78
2019-05-21T11:33:44.664Z,12.68
2019-05-21T11:38:48.684Z,13.03
2019-05-21T11:43:53.727Z,11.53
2019-05-21T11:48:57.697Z,11.18
2019-05-21T11:54:01.730Z,9.70
2019-05-21T11:59:05.808Z,9.70
2019-05-21T12:04:09.788Z,7.45
2019-05-21T12:09:13.862Z,6.00
2019-05-21T12:14:17.906Z,8.13
2019-05-21T12:19:21.916Z,6.17
2019-05-21T12:24:27.579Z,7.08
2019-05-21T12:29:34.222Z,10.68
2019-05-21T12:34:39.050Z,6.95
2019-05-21T12:39:43.153Z,8.78
2019-05-21T12:44:47.191Z,10.00
2019-05-21T12:49:51.134Z,8.05
2019-05-21T12:54:55.089Z,7.28
2019-05-21T12:59:59.095Z,6.60
2019-05-21T13:05:03.206Z,6.62
2019-05-21T13:10:08.298Z,6.42
2019-05-21T13:15:12.541Z,8.08
2019-05-21T13:20:17.475Z,4.92
2019-05-21T13:25:21.438Z,4.58
2019-05-21T13:30:25.581Z,3.70
2019-05-21T13:35:29.488Z,5.42
2019-05-21T13:40:34.410Z,4.00
2019-05-21T13:45:38.460Z,3.77
2019-05-21T13:50:42.401Z,3.70
2019-05-21T13:55:46.356Z,2.83
2019-05-21T14:00:56.486Z,2.17
2019-05-21T14:06:00.386Z,2.72
2019-05-21T14:11:05.284Z,3.20
2019-05-21T14:16:09.223Z,3.72
2019-05-21T14:21:13.156Z,3.72
2019-05-21T14:26:17.135Z,6.15
2019-05-21T14:31:21.155Z,3.62
2019-05-21T14:36:25.271Z,6.05
2019-05-21T14:41:29.568Z,5.53
2019-05-21T14:46:33.756Z,5.00
2019-05-21T14:51:37.700Z,4.28
2019-05-21T14:56:46.689Z,4.00
2019-05-21T15:01:47.290Z,4.15
2019-05-21T15:06:51.379Z,4.70
2019-05-21T15:11:55.466Z,5.90
2019-05-21T15:16:59.535Z,5.62
2019-05-21T15:22:03.668Z,6.45
2019-05-21T15:27:07.684Z,6.00
2019-05-21T15:32:11.842Z,7.97
2019-05-21T15:37:15.791Z,6.65
2019-05-21T15:42:19.749Z,5.40
2019-05-21T15:47:23.705Z,4.30
2019-05-21T15:52:27.760Z,4.47
2019-05-21T15:57:31.755Z,6.53
2019-05-21T16:02:37.072Z,4.28
2019-05-21T16:07:41.059Z,3.60
2019-05-21T16:12:45.153Z,4.15
2019-05-21T16:17:49.120Z,4.83
2019-05-21T16:22:53.045Z,5.53
2019-05-21T16:27:56.985Z,4.50
2019-05-21T16:33:00.919Z,5.35
2019-05-21T16:38:05.131Z,4.70
2019-05-21T16:43:09.146Z,4.30
2019-05-21T16:48:13.072Z,4.42
2019-05-21T16:53:17.304Z,7.58
2019-05-21T16:58:21.457Z,4.42
2019-05-21T17:03:25.562Z,5.85
2019-05-21T17:08:29.568Z,5.08
2019-05-21T17:13:33.526Z,4.45
2019-05-21T17:18:37.450Z,4.25
2019-05-21T17:23:41.382Z,4.55
2019-05-21T17:28:45.318Z,6.80
2019-05-21T17:33:49.244Z,4.87
2019-05-21T17:38:53.345Z,4.85
2019-05-21T17:43:57.371Z,6.20
2019-05-21T17:49:01.430Z,7.22
2019-05-21T17:54:05.529Z,6.67
2019-05-21T17:59:09.586Z,6.05
2019-05-21T18:04:14.030Z,5.65
2019-05-21T18:09:19.941Z,4.47
2019-05-21T18:14:25.194Z,9.10
2019-05-21T18:19:29.324Z,4.17
2019-05-21T18:24:33.756Z,4.72
2019-05-21T18:29:37.746Z,4.33
2019-05-21T18:34:41.957Z,4.53
2019-05-21T18:39:46.016Z,5.72
2019-05-21T18:44:50.003Z,3.90
2019-05-21T18:49:53.968Z,4.37
2019-05-21T18:54:58.014Z,4.75
2019-05-21T19:00:01.940Z,5.72
2019-05-21T19:05:09.037Z,4.87
2019-05-21T19:10:13.601Z,4.70
2019-05-21T19:15:18.243Z,4.60
2019-05-21T19:20:22.181Z,4.65
2019-05-21T19:25:26.133Z,6.15
2019-05-21T19:30:30.787Z,5.47
2019-05-21T19:35:34.831Z,6.40
2019-05-21T19:40:38.795Z,4.97
2019-05-21T19:45:42.938Z,4.60
2019-05-21T19:50:46.991Z,5.42
2019-05-21T19:55:51.166Z,7.75
2019-05-21T20:00:55.771Z,5.65
2019-05-21T20:06:01.122Z,6.53
2019-05-21T20:11:06.636Z,4.53
2019-05-21T20:16:11.653Z,7.08
2019-05-21T20:21:15.910Z,6.97
2019-05-21T20:26:22.107Z,3.22
2019-05-21T20:31:26.047Z,3.45
2019-05-21T20:36:31.494Z,5.92
2019-05-21T20:41:36.241Z,3.17
2019-05-21T20:46:41.269Z,4.87
2019-05-21T20:51:46.105Z,4.08
2019-05-21T20:56:50.934Z,5.70
2019-05-21T21:01:54.873Z,4.87
2019-05-21T21:07:01.665Z,3.70
2019-05-21T21:12:06.196Z,4.03
2019-05-21T21:17:11.738Z,5.15
2019-05-21T21:22:15.888Z,4.92
2019-05-21T21:27:20.290Z,5.30
2019-05-21T21:32:24.435Z,3.22
2019-05-21T21:37:28.788Z,6.20
2019-05-21T21:42:33.305Z,3.55
2019-05-21T21:47:38.285Z,3.92
2019-05-21T21:52:42.539Z,3.27
2019-05-21T21:57:46.574Z,4.62
2019-05-21T22:02:51.352Z,4.55
2019-05-21T22:07:55.297Z,2.70
2019-05-21T22:12:59.547Z,5.28
2019-05-21T22:18:04.060Z,4.85
2019-05-21T22:23:10.060Z,3.75
2019-05-21T22:28:14.483Z,2.55
2019-05-21T22:33:19.555Z,5.45
2019-05-21T22:38:24.397Z,5.28
2019-05-21T22:43:30.298Z,2.90
2019-05-21T22:48:34.216Z,3.30
2019-05-21T22:53:38.150Z,6.35
2019-05-21T22:58:42.155Z,3.33
2019-05-21T23:03:46.416Z,3.52
2019-05-21T23:08:50.455Z,4.72
2019-05-21T23:13:54.390Z,5.35
2019-05-21T23:18:58.710Z,3.90
2019-05-21T23:24:03.759Z,5.67
2019-05-21T23:29:07.701Z,4.55
2019-05-21T23:34:13.257Z,5.37
2019-05-21T23:39:18.856Z,4.22
2019-05-21T23:44:23.097Z,6.00
2019-05-21T23:49:27.231Z,3.95
2019-05-21T23:54:31.184Z,4.33
2019-05-21T23:59:35.141Z,5.60
